Time;durP1;ratioP1;P1;durP2;ratioP2;P2;SDS_P1;SDS_P2;PMS_P1;PMS_P2;Temp;Humidity;BMP_temperature;BMP_pressure;BME280_temperature;BME280_humidity;BME280_pressure;Samples;Min_cycle;Max_cycle;Signal;HPM_P1;HPM_P2
2022/06/15 00:00:38;;;;;;;4.35;2.35;;;;;;;14.48;61.06;101824.94;5060272;28;20475;-76
2022/06/15 00:03:04;;;;;;;5.28;2.72;;;;;;;14.45;60.88;101825.03;5063126;28;20025;-75
2022/06/15 00:05:29;;;;;;;4.78;2.83;;;;;;;14.39;60.63;101824.28;5059564;28;20020;-75
2022/06/15 00:07:55;;;;;;;3.63;2.28;;;;;;;14.34;60.97;101827.91;5059252;28;20111;-75
2022/06/15 00:10:21;;;;;;;4.45;2.53;;;;;;;14.30;61.18;101828.88;5059661;28;20035;-76
2022/06/15 00:12:47;;;;;;;4.15;2.53;;;;;;;14.23;61.45;101822.94;5057347;28;20372;-75
2022/06/15 00:15:13;;;;;;;4.18;2.38;;;;;;;14.19;61.45;101819.56;5056985;28;20520;-76
2022/06/15 00:17:39;;;;;;;5.38;2.53;;;;;;;14.18;61.69;101823.06;5062675;28;20028;-76
2022/06/15 00:20:05;;;;;;;4.07;2.40;;;;;;;14.14;61.75;101824.03;5062579;28;20063;-76
2022/06/15 00:22:30;;;;;;;4.60;2.47;;;;;;;14.12;61.98;101818.00;5050930;28;20050;-76
2022/06/15 00:24:56;;;;;;;3.78;2.35;;;;;;;14.09;61.55;101816.31;5071857;28;20437;-76
2022/06/15 00:27:21;;;;;;;3.60;2.50;;;;;;;14.06;61.77;101813.78;5067211;28;20029;-76
2022/06/15 00:29:46;;;;;;;5.78;2.40;;;;;;;14.04;61.96;101812.94;5041515;28;20036;-76
2022/06/15 00:32:12;;;;;;;4.93;3.00;;;;;;;14.00;61.51;101816.56;5059334;28;20541;-76
2022/06/15 00:34:37;;;;;;;5.22;2.53;;;;;;;13.96;61.92;101822.75;5060232;28;20029;-76
2022/06/15 00:37:04;;;;;;;5.30;2.33;;;;;;;13.91;61.93;101811.53;5064512;28;20471;-75
2022/06/15 00:39:30;;;;;;;3.70;2.50;;;;;;;13.89;62.65;101814.19;5063244;28;20077;-75
2022/06/15 00:41:56;;;;;;;5.30;2.30;;;;;;;13.83;62.40;101805.66;5058852;28;20025;-75
2022/06/15 00:44:21;;;;;;;5.03;2.78;;;;;;;13.80;62.33;101810.03;5055519;28;20165;-76
2022/06/15 00:46:49;;;;;;;3.17;2.25;;;;;;;13.77;63.09;101817.97;5055987;28;20027;-75
2022/06/15 00:49:20;;;;;;;4.03;2.60;;;;;;;13.74;62.70;101812.78;5059286;28;20074;-75
2022/06/15 00:51:48;;;;;;;5.43;2.45;;;;;;;13.72;62.40;101814.59;5054698;28;20395;-76
2022/06/15 00:54:14;;;;;;;5.25;2.67;;;;;;;13.70;62.88;101800.69;5056778;28;20028;-76
2022/06/15 00:56:39;;;;;;;5.53;2.45;;;;;;;13.65;62.32;101807.78;5063353;28;20025;-76
2022/06/15 00:59:12;;;;;;;3.80;2.40;;;;;;;13.58;62.05;101807.03;5061868;28;20021;-75
2022/06/15 01:01:38;;;;;;;5.90;2.70;;;;;;;13.55;62.70;101808.88;5062641;28;20020;-75
2022/06/15 01:04:04;;;;;;;3.95;2.50;;;;;;;13.53;62.83;101815.91;5041391;28;20055;-75
2022/06/15 01:06:35;;;;;;;4.47;2.53;;;;;;;13.51;63.07;101814.16;5043462;28;20029;-76
2022/06/15 01:09:27;;;;;;;5.25;2.95;;;;;;;13.50;62.72;101804.59;5045852;28;20058;-76
2022/06/15 01:12:13;;;;;;;4.70;2.35;;;;;;;13.49;61.32;101802.88;5061938;28;20029;-75
2022/06/15 01:15:01;;;;;;;6.07;2.90;;;;;;;13.50;61.93;101803.75;5042294;28;20040;-75
2022/06/15 01:17:44;;;;;;;4.07;2.22;;;;;;;13.47;61.78;101799.47;5059361;28;20109;-75
2022/06/15 01:20:31;;;;;;;5.35;2.67;;;;;;;13.43;62.11;101802.16;5056356;28;20044;-76
2022/06/15 01:23:26;;;;;;;4.40;2.70;;;;;;;13.38;62.18;101799.63;5058816;28;20044;-75
2022/06/15 01:26:17;;;;;;;3.78;2.40;;;;;;;13.32;63.49;101803.25;5062154;28;20059;-76
2022/06/15 01:28:55;;;;;;;4.47;2.78;;;;;;;13.33;62.75;101802.34;5054481;28;20044;-76
2022/06/15 01:31:36;;;;;;;5.55;3.00;;;;;;;13.31;62.84;101798.06;5061627;28;20021;-76
2022/06/15 01:34:41;;;;;;;6.65;2.80;;;;;;;13.30;62.40;101798.94;5059717;28;20028;-75
2022/06/15 01:37:18;;;;;;;6.28;2.90;;;;;;;13.21;63.98;101798.25;5044034;28;20041;-76
2022/06/15 01:39:56;;;;;;;4.55;2.65;;;;;;;13.20;64.21;101796.53;5062730;28;20384;-75
2022/06/15 01:42:34;;;;;;;4.93;2.72;;;;;;;13.14;63.71;101788.84;5054119;28;20041;-75
2022/06/15 01:45:04;;;;;;;6.15;2.97;;;;;;;13.09;65.52;101787.19;5060529;28;20479;-75
2022/06/15 01:47:33;;;;;;;6.32;3.10;;;;;;;13.08;64.80;101786.34;5060611;28;20032;-75
2022/06/15 01:50:04;;;;;;;7.93;3.25;;;;;;;13.09;64.80;101781.97;5062459;28;20032;-76
2022/06/15 01:52:41;;;;;;;5.70;3.10;;;;;;;13.04;64.38;101779.44;5043997;28;20040;-76
2022/06/15 01:55:13;;;;;;;4.80;2.92;;;;;;;13.02;64.72;101782.09;5063364;28;20029;-76
2022/06/15 01:57:40;;;;;;;4.70;2.83;;;;;;;12.99;65.04;101786.50;5066157;28;20033;-75
2022/06/15 02:00:12;;;;;;;9.48;3.03;;;;;;;12.92;65.63;101795.38;5065940;28;20037;-75
2022/06/15 02:03:07;;;;;;;5.03;2.80;;;;;;;12.90;64.76;101783.22;5063610;28;20055;-75
2022/06/15 02:05:52;;;;;;;5.28;2.92;;;;;;;12.90;64.41;101782.34;5064098;28;20188;-75
2022/06/15 02:08:43;;;;;;;5.25;2.95;;;;;;;12.90;64.33;101779.72;5065724;28;20063;-76
2022/06/15 02:11:14;;;;;;;;;;;;;;;12.96;61.86;101777.00;5061722;28;20532;-75
2022/06/15 02:13:47;;;;;;;6.15;2.70;;;;;;;12.85;64.68;101779.81;5058608;28;19927;-75
2022/06/15 02:16:24;;;;;;;4.80;2.90;;;;;;;12.81;65.18;101772.94;5065016;28;20636;-75
2022/06/15 02:18:50;;;;;;;5.20;2.70;;;;;;;12.78;65.60;101767.81;5061250;28;20032;-75
2022/06/15 02:21:19;;;;;;;5.63;3.28;;;;;;;12.76;65.85;101774.81;5060238;28;20029;-75
2022/06/15 02:23:47;;;;;;;4.97;3.20;;;;;;;12.75;65.92;101767.88;5058980;28;20030;-75
2022/06/15 02:26:14;;;;;;;5.10;3.20;;;;;;;12.70;66.45;101767.09;5064617;28;20041;-75
2022/06/15 02:28:46;;;;;;;7.88;3.10;;;;;;;12.67;66.51;101764.53;5067562;28;20418;-75
2022/06/15 02:31:12;;;;;;;5.68;3.05;;;;;;;12.66;66.89;101765.41;5063187;28;20039;-75
2022/06/15 02:33:44;;;;;;;6.22;3.47;;;;;;;12.63;67.08;101762.88;5058069;28;20032;-75
2022/06/15 02:36:09;;;;;;;6.95;3.28;;;;;;;12.61;67.29;101765.50;5068334;28;20027;-75
2022/06/15 02:38:35;;;;;;;5.10;3.40;;;;;;;12.61;66.79;101760.28;5067912;28;20390;-75
2022/06/15 02:41:00;;;;;;;5.53;3.05;;;;;;;12.62;66.16;101761.16;5058248;28;20031;-75
2022/06/15 02:43:29;;;;;;;6.40;3.05;;;;;;;12.62;66.52;101762.00;5066097;28;20033;-75
2022/06/15 02:45:59;;;;;;;5.00;3.03;;;;;;;12.59;66.74;101759.47;5061258;28;20570;-76
2022/06/15 02:48:25;;;;;;;6.15;3.00;;;;;;;12.58;66.70;101761.22;5064583;28;20041;-75
2022/06/15 02:51:00;;;;;;;4.50;2.83;;;;;;;12.56;66.47;101768.22;5064151;28;20203;-75
2022/06/15 02:53:29;;;;;;;5.28;2.97;;;;;;;12.52;67.31;101756.09;5067599;28;20025;-75
2022/06/15 02:55:56;;;;;;;5.32;2.90;;;;;;;12.52;67.16;101756.09;5061373;28;20039;-75
2022/06/15 02:58:30;;;;;;;4.93;2.80;;;;;;;12.49;66.71;101753.56;5061739;28;20155;-75
2022/06/15 03:00:56;;;;;;;4.90;2.97;;;;;;;12.47;67.00;101747.50;5062981;28;20032;-75
2022/06/15 03:03:23;;;;;;;4.55;2.97;;;;;;;12.46;67.18;101745.81;5058453;28;20037;-75
2022/06/15 03:05:50;;;;;;;3.92;3.00;;;;;;;12.45;67.35;101754.53;5062210;28;20043;-75
2022/06/15 03:08:17;;;;;;;4.93;2.97;;;;;;;12.42;67.47;101747.59;5064371;28;20078;-75
2022/06/15 03:10:43;;;;;;;5.55;3.10;;;;;;;12.40;67.43;101751.13;5058078;28;20024;-75
2022/06/15 03:13:08;;;;;;;4.93;2.72;;;;;;;12.35;67.69;101748.63;5061115;28;20515;-76
2022/06/15 03:15:34;;;;;;;5.78;2.97;;;;;;;12.34;67.62;101748.63;5056414;28;20360;-76
2022/06/15 03:17:59;;;;;;;6.18;2.97;;;;;;;12.32;67.58;101753.00;5062941;28;20032;-75
2022/06/15 03:20:25;;;;;;;5.88;2.95;;;;;;;12.31;67.29;101746.94;5058155;28;20079;-75
2022/06/15 03:22:51;;;;;;;4.65;2.75;;;;;;;12.30;67.77;101759.09;5059924;28;20089;-75
2022/06/15 03:25:16;;;;;;;7.45;3.10;;;;;;;12.31;67.53;101752.16;5060714;28;20185;-75
2022/06/15 03:27:42;;;;;;;6.20;3.15;;;;;;;12.32;67.67;101753.00;5060452;28;20037;-75
2022/06/15 03:30:08;;;;;;;7.57;3.00;;;;;;;12.27;67.77;101753.97;5046347;28;20040;-75
2022/06/15 03:32:34;;;;;;;6.10;3.03;;;;;;;12.25;67.54;101749.66;5058632;28;20487;-75
2022/06/15 03:35:00;;;;;;;6.90;3.40;;;;;;;12.22;67.71;101753.19;5063557;28;20475;-75
2022/06/15 03:37:25;;;;;;;5.97;3.00;;;;;;;12.21;67.67;101755.84;5067638;28;20052;-75
2022/06/15 03:39:52;;;;;;;6.57;3.10;;;;;;;12.20;68.95;101749.75;5059387;28;20045;-75
2022/06/15 03:42:20;;;;;;;5.63;2.90;;;;;;;12.17;68.41;101749.78;5061033;28;20028;-75
2022/06/15 03:44:46;;;;;;;5.35;3.10;;;;;;;12.17;68.02;101744.56;5058643;28;20100;-75
2022/06/15 03:47:17;;;;;;;4.80;2.90;;;;;;;12.14;68.63;101755.94;5061651;28;20123;-75
2022/06/15 03:49:43;;;;;;;6.63;3.40;;;;;;;12.12;69.23;101756.88;5065917;28;20052;-75
2022/06/15 03:52:10;;;;;;;6.53;3.10;;;;;;;12.10;68.67;101761.25;5061231;28;20078;-75
2022/06/15 03:54:36;;;;;;;7.57;3.30;;;;;;;12.11;69.16;101761.19;5062022;28;20086;-75
2022/06/15 03:57:02;;;;;;;8.55;3.25;;;;;;;12.09;69.33;101762.97;5060188;28;20396;-75
2022/06/15 03:59:28;;;;;;;7.10;3.38;;;;;;;12.12;69.17;101762.91;5056251;28;20498;-75
2022/06/15 04:01:54;;;;;;;5.38;2.90;;;;;;;12.17;68.84;101751.56;5057706;28;20028;-75
2022/06/15 04:04:19;;;;;;;7.82;3.70;;;;;;;12.16;69.20;101760.25;5059429;28;20032;-75
2022/06/15 04:06:44;;;;;;;4.72;3.05;;;;;;;12.18;69.24;101758.50;5063495;28;20073;-75
2022/06/15 04:09:10;;;;;;;7.15;3.10;;;;;;;12.18;69.66;101751.50;5063546;28;20534;-75
2022/06/15 04:14:19;;;;;;;5.53;3.10;;;;;;;12.24;69.60;101760.97;5064256;28;20036;-75
2022/06/15 04:16:46;;;;;;;7.38;3.63;;;;;;;12.27;69.82;101763.53;5054193;28;20032;-75
2022/06/15 04:19:11;;;;;;;7.28;3.20;;;;;;;12.31;70.00;101762.59;5060434;28;20163;-75
2022/06/15 04:21:37;;;;;;;6.82;3.33;;;;;;;12.33;70.05;101759.94;5059742;28;20119;-75
2022/06/15 04:24:03;;;;;;;8.85;3.67;;;;;;;12.37;70.01;101759.00;5057574;28;20024;-75
2022/06/15 04:26:28;;;;;;;7.07;3.70;;;;;;;12.42;69.95;101759.78;5061033;28;20032;-76
2022/06/15 04:28:54;;;;;;;7.22;3.40;;;;;;;12.45;69.10;101759.75;5067705;28;20043;-75
2022/06/15 04:31:19;;;;;;;5.97;3.80;;;;;;;12.51;68.52;101756.16;5060541;28;20492;-75
2022/06/15 04:33:44;;;;;;;6.55;3.78;;;;;;;12.56;68.78;101756.91;5056935;28;20021;-76
2022/06/15 04:36:12;;;;;;;7.82;3.88;;;;;;;12.59;69.04;101760.34;5055690;28;20043;-75
2022/06/15 04:38:38;;;;;;;7.80;3.42;;;;;;;12.62;69.81;101759.41;5054884;28;20017;-75
2022/06/15 04:41:03;;;;;;;6.45;3.67;;;;;;;12.67;69.65;101756.69;5053935;28;20356;-75
2022/06/15 04:43:29;;;;;;;8.20;4.47;;;;;;;12.70;69.32;101754.91;5058396;28;20383;-75
2022/06/15 04:45:54;;;;;;;6.55;4.00;;;;;;;12.72;70.01;101752.25;5060029;28;20037;-75
2022/06/15 04:48:20;;;;;;;5.90;3.63;;;;;;;12.77;69.95;101750.41;5056865;28;20037;-76
2022/06/15 04:50:45;;;;;;;7.80;3.78;;;;;;;12.81;70.35;101757.28;5055893;28;20032;-75
2022/06/15 04:53:10;;;;;;;9.52;3.95;;;;;;;12.85;69.82;101761.56;5056615;28;20029;-75
2022/06/15 04:55:36;;;;;;;5.07;3.85;;;;;;;12.90;69.68;101756.22;5057163;28;20066;-75
2022/06/15 04:58:02;;;;;;;5.97;3.72;;;;;;;12.95;69.30;101758.75;5053812;28;20028;-75
2022/06/15 05:00:33;;;;;;;8.25;3.90;;;;;;;13.01;69.20;101769.06;5057706;28;20491;-75
2022/06/15 05:02:58;;;;;;;6.88;3.67;;;;;;;13.09;68.84;101767.16;5061278;28;20037;-75
2022/06/15 05:05:24;;;;;;;7.80;3.85;;;;;;;13.14;68.80;101767.94;5066954;28;20401;-75
2022/06/15 05:07:50;;;;;;;6.45;4.10;;;;;;;13.24;67.81;101767.72;5062880;28;20028;-75
2022/06/15 05:10:19;;;;;;;7.75;4.03;;;;;;;13.34;68.39;101761.38;5058128;28;20540;-75
2022/06/15 05:12:45;;;;;;;6.95;4.10;;;;;;;13.41;67.44;101770.84;5062530;28;20499;-75
2022/06/15 05:15:13;;;;;;;7.30;3.60;;;;;;;13.50;68.32;101768.00;5066838;28;20027;-75
2022/06/15 05:17:40;;;;;;;7.07;4.13;;;;;;;13.59;67.46;101766.09;5070426;28;20468;-75
2022/06/15 05:20:06;;;;;;;7.10;4.20;;;;;;;13.68;67.49;101767.63;5067376;28;20040;-75
2022/06/15 05:22:31;;;;;;;10.20;4.10;;;;;;;13.75;66.84;101762.22;5067850;28;20490;-75
2022/06/15 05:24:56;;;;;;;9.65;4.22;;;;;;;13.85;67.54;101757.63;5070731;28;20025;-75
2022/06/15 05:27:22;;;;;;;9.40;4.60;;;;;;;13.93;66.64;101760.03;5071289;28;20305;-75
2022/06/15 05:29:47;;;;;;;7.57;4.55;;;;;;;14.01;66.07;101762.47;5067767;28;20075;-75
2022/06/15 05:32:12;;;;;;;6.55;4.45;;;;;;;14.05;65.91;101759.72;5070247;28;20230;-76
2022/06/15 05:34:38;;;;;;;8.07;4.40;;;;;;;14.10;66.29;101756.97;5072878;28;20390;-75
2022/06/15 05:37:03;;;;;;;7.45;4.28;;;;;;;14.18;66.16;101759.41;5072579;28;20376;-75
2022/06/15 05:39:29;;;;;;;10.23;4.97;;;;;;;14.24;66.21;101761.84;5070526;28;20021;-75
2022/06/15 05:41:54;;;;;;;6.57;4.95;;;;;;;14.31;66.27;101759.94;5067480;28;20078;-75
2022/06/15 05:44:29;;;;;;;10.50;5.05;;;;;;;14.38;66.66;101766.75;5067820;28;20040;-75
2022/06/15 05:46:56;;;;;;;8.98;4.97;;;;;;;14.46;65.33;101763.91;5072506;28;20032;-75
2022/06/15 05:49:22;;;;;;;9.43;4.95;;;;;;;14.54;66.79;101767.16;5069802;28;20036;-76
2022/06/15 05:51:47;;;;;;;7.05;4.43;;;;;;;14.60;66.13;101767.00;5072465;28;20078;-75
2022/06/15 05:54:12;;;;;;;9.90;4.78;;;;;;;14.69;66.29;101766.75;5070465;28;20032;-75
2022/06/15 05:56:38;;;;;;;7.20;4.70;;;;;;;14.77;65.07;101773.56;5069587;28;20028;-75
2022/06/15 05:59:03;;;;;;;6.00;4.22;;;;;;;14.84;65.35;101772.50;5072183;28;20033;-75
2022/06/15 06:01:31;;;;;;;7.25;4.85;;;;;;;14.92;64.95;101767.03;5070729;28;20103;-75
2022/06/15 06:03:57;;;;;;;8.85;4.65;;;;;;;14.99;65.50;101764.19;5069093;28;20111;-75
2022/06/15 06:06:23;;;;;;;7.03;4.38;;;;;;;15.05;65.96;101768.38;5071875;28;20032;-76
2022/06/15 06:08:49;;;;;;;9.73;4.68;;;;;;;15.12;65.43;101758.56;5071433;28;20379;-75
2022/06/15 06:11:15;;;;;;;9.18;4.65;;;;;;;15.20;64.53;101764.41;5069739;28;20020;-76
2022/06/15 06:13:40;;;;;;;8.57;4.30;;;;;;;15.27;64.55;101768.59;5072110;28;20043;-75
2022/06/15 06:16:06;;;;;;;6.80;4.53;;;;;;;15.35;64.60;101770.13;5068315;28;20028;-75
2022/06/15 06:18:32;;;;;;;6.65;4.22;;;;;;;15.42;63.24;101766.38;5065311;28;20150;-76
2022/06/15 06:20:57;;;;;;;6.43;4.18;;;;;;;15.48;64.65;101761.81;5070372;28;20337;-75
2022/06/15 06:23:22;;;;;;;5.68;4.15;;;;;;;15.56;65.05;101769.44;5068263;28;20021;-75
2022/06/15 06:25:51;;;;;;;6.35;4.15;;;;;;;15.60;65.31;101765.81;5066104;28;20037;-75
2022/06/15 06:28:41;;;;;;;6.93;4.22;;;;;;;15.67;63.95;101765.63;5071447;28;20126;-75
2022/06/15 06:31:08;;;;;;;6.72;4.20;;;;;;;15.73;64.38;101770.66;5070952;28;20044;-75
2022/06/15 06:33:35;;;;;;;9.13;4.40;;;;;;;15.81;65.27;101759.91;5066127;28;20036;-75
2022/06/15 06:36:04;;;;;;;5.85;3.83;;;;;;;15.86;63.35;101772.03;5071331;28;20036;-75
2022/06/15 06:38:30;;;;;;;7.45;4.13;;;;;;;15.92;62.34;101768.34;5072971;28;20024;-75
2022/06/15 06:40:56;;;;;;;7.32;4.85;;;;;;;16.00;63.08;101773.31;5067051;28;20033;-75
2022/06/15 06:43:22;;;;;;;8.88;4.43;;;;;;;16.07;61.79;101775.69;5069261;28;20028;-76
2022/06/15 06:45:48;;;;;;;8.20;4.53;;;;;;;16.12;62.59;101780.78;5066086;28;20024;-76
2022/06/15 06:48:14;;;;;;;5.93;4.13;;;;;;;16.22;62.26;101779.56;5058996;28;20043;-75
2022/06/15 06:50:40;;;;;;;8.50;4.32;;;;;;;16.32;62.04;101789.72;5062864;28;20368;-76
2022/06/15 06:53:07;;;;;;;6.80;4.10;;;;;;;16.35;61.54;101779.97;5066059;28;20103;-76
2022/06/15 06:55:33;;;;;;;7.55;4.45;;;;;;;16.43;63.71;101782.31;5060886;28;20028;-75
2022/06/15 06:58:00;;;;;;;7.57;4.38;;;;;;;16.49;63.57;101782.13;5061399;28;20028;-75
2022/06/15 07:00:27;;;;;;;6.47;4.38;;;;;;;16.60;61.87;101788.75;5060575;28;20028;-75
2022/06/15 07:02:52;;;;;;;8.15;4.32;;;;;;;16.66;61.33;101783.28;5065211;28;20016;-75
2022/06/15 07:05:18;;;;;;;7.90;4.25;;;;;;;16.75;61.65;101788.19;5073022;28;20059;-76
2022/06/15 07:07:44;;;;;;;7.60;4.70;;;;;;;16.85;61.79;101783.44;5066388;28;20029;-75
2022/06/15 07:10:09;;;;;;;7.80;4.57;;;;;;;16.93;61.41;101783.16;5063875;28;20490;-75
2022/06/15 07:12:36;;;;;;;9.82;4.85;;;;;;;16.98;61.00;101776.88;5071039;28;20391;-76
2022/06/15 07:15:03;;;;;;;6.78;4.65;;;;;;;17.05;60.76;101780.13;5050934;28;20383;-75
2022/06/15 07:17:28;;;;;;;7.68;4.40;;;;;;;17.12;60.83;101786.84;5046848;28;20383;-76
2022/06/15 07:19:53;;;;;;;7.18;4.07;;;;;;;17.19;60.44;101786.63;5074353;28;20051;-75
2022/06/15 07:22:19;;;;;;;6.10;3.92;;;;;;;17.24;60.30;101790.78;5076784;28;20036;-76
2022/06/15 07:24:44;;;;;;;5.70;4.05;;;;;;;17.33;60.49;101789.56;5079870;28;20188;-75
2022/06/15 07:27:09;;;;;;;6.60;3.47;;;;;;;17.38;58.01;101798.16;5065157;28;20115;-75
2022/06/15 07:29:35;;;;;;;6.88;3.83;;;;;;;17.42;58.40;101799.72;5069655;28;20020;-76
2022/06/15 07:32:00;;;;;;;6.05;3.40;;;;;;;17.47;59.32;101802.19;5062101;28;20077;-75
2022/06/15 07:34:25;;;;;;;7.05;3.53;;;;;;;17.50;58.13;101802.06;5066647;28;20036;-76
2022/06/15 07:36:51;;;;;;;6.78;3.50;;;;;;;17.55;58.44;101800.09;5065942;28;20028;-75
2022/06/15 07:39:28;;;;;;;8.70;3.28;;;;;;;17.60;58.34;101808.66;5071348;28;20466;-75
2022/06/15 07:41:54;;;;;;;6.97;3.25;;;;;;;17.64;58.30;101803.28;5062949;28;20155;-75
2022/06/15 07:44:23;;;;;;;6.78;3.25;;;;;;;17.68;57.10;101803.09;5069340;28;20411;-75
2022/06/15 07:46:48;;;;;;;5.50;3.40;;;;;;;17.72;57.20;101801.19;5052525;28;20035;-75
2022/06/15 07:52:03;;;;;;;7.30;2.83;;;;;;;17.81;56.05;101798.19;5065977;28;20048;-76
2022/06/15 07:54:29;;;;;;;5.00;2.70;;;;;;;17.86;57.03;101798.00;5070598;28;20536;-76
2022/06/15 07:56:55;;;;;;;5.15;2.75;;;;;;;17.90;56.17;101797.81;5071527;28;20118;-75
2022/06/15 07:59:22;;;;;;;7.40;2.72;;;;;;;17.94;54.41;101795.06;5069181;28;20032;-76
2022/06/15 08:01:48;;;;;;;4.15;2.70;;;;;;;17.96;54.60;101794.06;5047041;28;20504;-75
2022/06/15 08:04:14;;;;;;;4.65;2.55;;;;;;;17.99;54.93;101796.59;5065470;28;20104;-76
2022/06/15 08:06:42;;;;;;;7.10;3.42;;;;;;;18.04;54.21;101794.63;5069404;28;20475;-76
2022/06/15 08:09:09;;;;;;;5.32;2.75;;;;;;;18.09;54.15;101794.44;5075109;28;20383;-76
2022/06/15 08:11:36;;;;;;;7.68;2.78;;;;;;;18.13;56.24;101803.06;5065938;28;20086;-76
2022/06/15 08:14:01;;;;;;;6.75;3.00;;;;;;;18.20;56.75;101799.25;5067825;28;20021;-75
2022/06/15 08:16:26;;;;;;;6.05;2.80;;;;;;;18.23;54.93;101796.50;5070941;28;20119;-76
2022/06/15 08:18:58;;;;;;;6.45;2.83;;;;;;;18.28;54.54;101794.50;5068801;28;20375;-75
2022/06/15 08:21:25;;;;;;;;;;;;;;;18.34;55.27;101794.25;5050843;28;20854;-75
2022/06/15 08:23:54;;;;;;;5.55;3.10;;;;;;;18.39;52.79;101785.28;5066041;28;19951;-76
2022/06/15 08:26:23;;;;;;;4.80;2.97;;;;;;;18.44;54.23;101794.69;5050771;28;20035;-76
2022/06/15 08:28:52;;;;;;;5.55;2.95;;;;;;;18.51;53.32;101787.38;5069594;28;20024;-75
2022/06/15 08:31:18;;;;;;;6.60;2.90;;;;;;;18.56;54.26;101789.81;5073272;28;20468;-76
2022/06/15 08:33:44;;;;;;;5.22;2.47;;;;;;;18.61;54.39;101793.97;5067481;28;20871;-75
2022/06/15 08:36:11;;;;;;;4.93;2.53;;;;;;;18.66;53.58;101794.59;5061949;28;20028;-76
2022/06/15 08:38:36;;;;;;;6.53;2.72;;;;;;;18.70;54.77;101795.34;5074315;28;20025;-76
2022/06/15 08:41:39;;;;;;;5.95;2.65;;;;;;;18.76;54.48;101783.66;5069093;28;20029;-76
2022/06/15 08:44:31;;;;;;;8.52;3.00;;;;;;;18.79;53.75;101789.63;4983617;28;20093;-76
2022/06/15 08:47:06;;;;;;;5.07;2.50;;;;;;;18.87;53.77;101791.91;5063386;28;20036;-76
2022/06/15 08:49:48;;;;;;;4.90;2.97;;;;;;;18.91;54.21;101792.63;5063879;28;20119;-76
2022/06/15 08:52:18;;;;;;;4.72;2.50;;;;;;;18.93;52.42;101788.16;5059121;28;20036;-76
2022/06/15 08:54:55;;;;;;;5.95;2.33;;;;;;;18.96;54.72;101788.03;5085888;28;20488;-75
2022/06/15 08:57:32;;;;;;;4.05;2.20;;;;;;;19.00;50.93;101791.38;5071670;28;20413;-74
2022/06/15 09:00:37;;;;;;;4.68;2.20;;;;;;;19.04;52.69;101792.97;5071769;28;20025;-75
2022/06/15 09:03:22;;;;;;;6.93;2.50;;;;;;;19.09;53.95;101785.69;4989548;28;20033;-74
2022/06/15 09:05:56;;;;;;;5.43;2.65;;;;;;;19.14;52.14;101788.94;4989812;28;20034;-75
2022/06/15 09:08:52;;;;;;;3.42;2.40;;;;;;;19.19;52.69;101796.69;5041737;28;20408;-74
2022/06/15 09:11:27;;;;;;;5.20;2.40;;;;;;;19.22;51.53;101794.75;5072582;28;20029;-75
2022/06/15 09:14:06;;;;;;;5.75;2.17;;;;;;;19.24;51.70;101784.09;5069485;28;20035;-75
2022/06/15 09:16:53;;;;;;;5.25;2.47;;;;;;;19.25;51.90;101776.13;5070676;28;20044;-74
2022/06/15 09:19:28;;;;;;;4.75;2.20;;;;;;;19.30;51.87;101783.81;5071456;28;20528;-75
2022/06/15 09:21:59;;;;;;;5.13;2.20;;;;;;;19.33;50.76;101782.81;5074800;28;20043;-75
2022/06/15 09:24:32;;;;;;;4.53;2.20;;;;;;;19.36;52.20;101782.66;5065880;28;20573;-75
2022/06/15 09:27:02;;;;;;;6.43;2.40;;;;;;;19.40;51.28;101784.25;5071366;28;20095;-75
2022/06/15 09:29:56;;;;;;;5.03;2.45;;;;;;;19.42;51.42;101791.13;5070200;28;20031;-74
2022/06/15 09:32:46;;;;;;;7.88;2.53;;;;;;;19.45;50.52;101782.25;5068937;28;20021;-74
2022/06/15 09:35:17;;;;;;;5.07;2.42;;;;;;;19.50;50.31;101780.22;5068451;28;20383;-74
2022/06/15 09:37:48;;;;;;;6.15;2.53;;;;;;;19.59;52.06;101775.44;5065394;28;20047;-74
2022/06/15 09:40:15;;;;;;;5.60;2.22;;;;;;;19.63;51.47;101785.75;5062272;28;20016;-74
2022/06/15 09:42:52;;;;;;;7.85;2.60;;;;;;;19.66;49.98;101784.75;5050792;28;20099;-74
2022/06/15 09:45:32;;;;;;;6.40;2.50;;;;;;;19.69;51.17;101774.03;5067589;28;20166;-75
2022/06/15 09:48:07;;;;;;;5.10;2.33;;;;;;;19.70;51.57;101775.75;5067693;28;20029;-74
2022/06/15 09:50:39;;;;;;;5.47;2.40;;;;;;;19.72;51.07;101776.53;5062718;28;20471;-74
2022/06/15 09:53:22;;;;;;;7.10;2.65;;;;;;;19.72;50.75;101773.88;5066228;28;20736;-74
2022/06/15 09:55:51;;;;;;;4.97;2.45;;;;;;;19.73;51.25;101780.88;5065726;28;20033;-74
2022/06/15 09:58:20;;;;;;;4.72;2.45;;;;;;;19.74;50.14;101777.31;5069529;28;20056;-74
2022/06/15 10:00:48;;;;;;;3.78;2.13;;;;;;;19.76;48.99;101777.22;5061182;28;20028;-74
2022/06/15 10:03:30;;;;;;;5.03;2.20;;;;;;;19.79;49.93;101772.66;5070231;28;20383;-74
2022/06/15 10:06:01;;;;;;;6.57;3.13;;;;;;;19.79;48.82;101775.31;5056801;28;20033;-74
2022/06/15 10:08:26;;;;;;;8.70;2.65;;;;;;;19.83;48.18;101779.47;5066222;28;20024;-75
2022/06/15 10:10:58;;;;;;;5.35;2.95;;;;;;;19.85;48.85;101769.69;5064228;28;20473;-75
2022/06/15 10:13:30;;;;;;;4.28;2.70;;;;;;;19.91;50.67;101771.19;5052908;28;20103;-74
2022/06/15 10:16:00;;;;;;;;;;;;;;;19.97;50.65;101776.19;5059698;28;20032;-74
2022/06/15 10:18:41;;;;;;;8.30;2.40;;;;;;;20.02;50.14;101775.94;5061044;28;19943;-75
2022/06/15 10:21:20;;;;;;;6.60;2.92;;;;;;;20.04;49.08;101776.72;5063738;28;20032;-75
2022/06/15 10:24:26;;;;;;;4.35;2.55;;;;;;;20.05;47.65;101773.16;5060773;28;20033;-74
2022/06/15 10:27:16;;;;;;;3.75;2.13;;;;;;;20.09;49.61;101772.06;5018151;28;20391;-75
2022/06/15 10:29:43;;;;;;;6.32;2.80;;;;;;;20.12;48.32;101769.28;5060758;28;20085;-75
2022/06/15 10:32:08;;;;;;;6.35;3.08;;;;;;;20.13;45.18;101768.34;5063428;28;20040;-75
2022/06/15 10:34:43;;;;;;;5.43;2.80;;;;;;;20.16;49.47;101767.31;5058219;28;20033;-74
2022/06/15 10:37:26;;;;;;;5.90;2.80;;;;;;;20.18;49.31;101765.47;5062217;28;20037;-75
2022/06/15 10:39:55;;;;;;;9.15;2.90;;;;;;;20.24;49.64;101769.56;5055189;28;20017;-75
2022/06/15 10:42:32;;;;;;;4.72;2.80;;;;;;;20.26;49.73;101770.34;5045107;28;20056;-75
2022/06/15 10:45:00;;;;;;;5.07;2.60;;;;;;;20.26;49.90;101763.25;5054910;28;20117;-75
2022/06/15 10:47:38;;;;;;;4.53;2.53;;;;;;;20.31;50.41;101757.75;5054873;28;20053;-75
2022/06/15 10:50:16;;;;;;;5.43;2.50;;;;;;;20.35;49.37;101746.06;5058011;28;20039;-75
2022/06/15 10:52:48;;;;;;;7.80;2.58;;;;;;;20.37;50.39;101752.13;5044993;28;20048;-74
2022/06/15 11:04:29;;;;;;;4.97;2.33;;;;;;;20.42;48.65;101751.88;5058882;28;20071;-75
2022/06/15 11:07:12;;;;;;;3.97;2.25;;;;;;;20.43;48.95;101749.16;5050968;28;20056;-74
2022/06/15 11:09:41;;;;;;;6.20;2.30;;;;;;;20.49;48.77;101752.44;5057713;28;20115;-75
2022/06/15 11:12:25;;;;;;;5.57;2.28;;;;;;;20.53;49.11;101748.66;5054103;28;20037;-75
2022/06/15 11:14:50;;;;;;;6.57;2.20;;;;;;;20.55;47.71;101755.59;5055475;28;20037;-74
2022/06/15 11:20:25;;;;;;;4.95;2.15;;;;;;;20.58;48.12;101741.34;5056627;28;20149;-75
2022/06/15 11:22:54;;;;;;;7.13;2.67;;;;;;;20.59;47.94;101745.72;5056499;28;20412;-75
2022/06/15 11:25:25;;;;;;;5.32;2.25;;;;;;;20.62;47.58;101741.09;5055083;28;20047;-75
2022/06/15 11:28:06;;;;;;;7.07;2.30;;;;;;;20.66;47.95;101743.59;5056051;28;20031;-75
2022/06/15 11:30:37;;;;;;;5.45;2.30;;;;;;;20.69;49.68;101733.69;5053525;28;20552;-74
2022/06/15 11:33:15;;;;;;;5.53;2.40;;;;;;;20.71;47.40;101741.56;5058142;28;20043;-75
2022/06/15 11:35:44;;;;;;;7.28;2.58;;;;;;;20.69;45.74;101736.31;5054802;28;20115;-75
2022/06/15 11:38:45;;;;;;;5.00;2.30;;;;;;;20.71;47.97;101742.38;5053140;28;20017;-75
2022/06/15 11:41:20;;;;;;;4.32;2.42;;;;;;;20.72;48.98;101738.81;5058664;28;20040;-75
2022/06/15 11:43:50;;;;;;;7.00;2.17;;;;;;;20.75;47.53;101736.03;5038604;28;20152;-75
2022/06/15 11:46:35;;;;;;;7.18;2.67;;;;;;;20.81;47.87;101734.00;5060560;28;20055;-74
2022/06/15 11:49:30;;;;;;;6.22;2.13;;;;;;;20.85;48.98;101738.16;5057897;28;20024;-74
2022/06/15 11:52:13;;;;;;;4.40;2.05;;;;;;;20.88;47.12;101735.34;5059299;28;20037;-74
2022/06/15 11:54:58;;;;;;;4.45;2.30;;;;;;;20.91;48.69;101737.84;5054795;28;20033;-75
2022/06/15 11:57:54;;;;;;;7.10;2.80;;;;;;;20.92;46.52;101736.91;5058273;28;20025;-75
2022/06/15 12:00:31;;;;;;;5.47;2.35;;;;;;;20.96;49.54;101734.94;5055725;28;20484;-75